• Join FlightAware (Why Join?)
  • Login
  • US Flag 
Rudolph Flight #1: Arrived! 
10:16PM EST


 

Airport Tracker/Info


-or-


 

Live Flight TrackerFlight Track Log ✈ CHQ5087 ✈ 08-May-2013 ✈ KORD - KGRB

Flight Track Log - Related Links

Times and Time Zones

All times are in EDT time to prevent confusion due to time zone crossing. See the CHQ5087 flight status page for this flight to view local times or setup timezone preferences in your user account.

Time Position Orientation Groundspeed Altitude Reporting Facility
EDT Latitude Longitude Course Direction KTS MPH feet Rate Location/Type
11:03AM 42.0167 -87.9667 324° Northwest 179 206 2,700  Level Chicago TRACON
11:04AM 42.0667 -88.0000 334° Northwest 235 270 4,800 1,080 Climbing Chicago TRACON
11:05AM 42.2414 -87.9895 350° North  Level FlightAware Approximate
11:05AM 42.1325 -88.0128 352° North 256 295 5,000  Level Chicago Center
11:06AM 42.3346 -88.0128 350° North  Level FlightAware Approximate
11:06AM 42.2031 -88.0183 357° North 257 296 6,100  Level Chicago Center
11:07AM 42.4246 -88.0516 352° North  Level FlightAware Approximate
11:07AM 42.2792 -88.0203 359° North 271 312 8,900  Level Chicago Center
11:08AM 42.5047 -88.0714 324° Northwest  Level FlightAware Approximate
11:08AM 42.3619 -88.0250 358° North 275 316 12,100  Level Chicago Center
11:09AM 42.4431 -88.0289 358° North 291 335 14,500 1,860 Climbing Chicago Center
11:10AM 42.5403 -88.0350 357° North 299 344 16,000 720 Climbing Chicago Center
11:11AM 42.6328 -88.0389 358° North 326 375 16,000  Level Chicago Center
11:12AM 42.7383 -88.0436 358° North 379 436 16,000  Level Chicago Center
11:13AM 42.8453 -88.0497 358° North 385 443 16,000 -240 Level Chicago Center
11:14AM 42.9514 -88.0547 358° North 382 440 15,600 -660 Descending Chicago Center
11:14AM 43.0000 -88.0500 North 393 452 15,200 -1,140 Descending KMKE
11:15AM 43.0667 -88.0667 350° North 395 455 14,600 -960 Descending KMKE
11:16AM 43.1667 -88.0667 360° North 388 447 13,700 -780 Descending KMKE
11:17AM 43.2833 -88.0667 360° North 378 435 13,000 -360 Descending KMKE
11:18AM 43.3833 -88.0667 360° North 368 423 13,000  Level KMKE
11:18AM 43.3933 -88.0753 328° Northwest 372 428 13,000  Level Chicago Center
11:19AM 43.4961 -88.0806 358° North 371 427 13,000 -180 Level Chicago Center
11:20AM 43.5997 -88.0853 358° North 374 430 12,700 -540 Descending Chicago Center
11:21AM 43.6861 -88.0886 358° North 376 433 12,100 -840 Descending Minneapolis Center
11:22AM 43.7894 -88.0947 358° North 374 430 11,300 -840 Descending Minneapolis Center
11:23AM 43.8928 -88.0997 358° North 373 429 10,500 -660 Descending Minneapolis Center
11:24AM 44.0083 -88.1064 358° North 357 411 10,000 -300 Descending Minneapolis Center
11:25AM 44.1058 -88.0811 11° North 365 420 10,000  Level Minneapolis Center
11:26AM 44.1983 -88.0456 15° North 345 397 10,000 -840 Level Minneapolis Center
11:27AM 44.2719 -88.0131 18° North 293 337 8,300 -1,740 Descending Minneapolis Center
11:28AM 44.3422 -87.9872 15° North 270 311 6,500 -1,560 Descending Minneapolis Center
11:29AM 44.4128 -87.9978 354° North 257 296 5,100 -1,380 Descending Minneapolis Center